sensor_id;sensor_type;location;lat;lon;timestamp;temperature;humidity
7212;DHT22;3647;48.792;9.802;2023-05-13T05:57:42;10.70;99.90
7212;DHT22;3647;48.792;9.802;2023-05-13T06:00:10;10.80;99.90
7212;DHT22;3647;48.792;9.802;2023-05-13T06:05:05;10.70;99.90
7212;DHT22;3647;48.792;9.802;2023-05-13T06:07:32;10.70;99.90
7212;DHT22;3647;48.792;9.802;2023-05-13T06:09:59;10.70;99.90
7212;DHT22;3647;48.792;9.802;2023-05-13T06:14:54;10.80;99.90
7212;DHT22;3647;48.792;9.802;2023-05-13T06:32:06;11.10;99.90
7212;DHT22;3647;48.792;9.802;2023-05-13T06:46:49;11.40;99.90
7212;DHT22;3647;48.792;9.802;2023-05-13T06:49:17;11.40;99.90
7212;DHT22;3647;48.792;9.802;2023-05-13T07:06:28;11.40;99.90
7212;DHT22;3647;48.792;9.802;2023-05-13T07:08:55;11.60;99.90
7212;DHT22;3647;48.792;9.802;2023-05-13T07:13:49;11.90;99.90
7212;DHT22;3647;48.792;9.802;2023-05-13T07:16:16;11.90;99.90
7212;DHT22;3647;48.792;9.802;2023-05-13T07:18:43;11.80;99.90
7212;DHT22;3647;48.792;9.802;2023-05-13T07:21:10;11.60;99.90
7212;DHT22;3647;48.792;9.802;2023-05-13T07:23:38;11.60;99.90
7212;DHT22;3647;48.792;9.802;2023-05-13T07:26:04;11.70;99.90
7212;DHT22;3647;48.792;9.802;2023-05-13T07:33:25;11.60;99.90
7212;DHT22;3647;48.792;9.802;2023-05-13T07:35:52;11.60;99.90
7212;DHT22;3647;48.792;9.802;2023-05-13T07:40:48;11.60;99.90
7212;DHT22;3647;48.792;9.802;2023-05-13T07:58:05;11.80;99.90
7212;DHT22;3647;48.792;9.802;2023-05-13T08:15:23;12.00;99.90
7212;DHT22;3647;48.792;9.802;2023-05-13T08:30:08;12.10;99.90
7212;DHT22;3647;48.792;9.802;2023-05-13T08:32:36;12.10;99.90
7212;DHT22;3647;48.792;9.802;2023-05-13T08:37:30;12.20;99.90
7212;DHT22;3647;48.792;9.802;2023-05-13T08:42:27;12.00;99.90
7212;DHT22;3647;48.792;9.802;2023-05-13T08:44:54;12.00;99.90
7212;DHT22;3647;48.792;9.802;2023-05-13T08:47:27;12.10;99.90
7212;DHT22;3647;48.792;9.802;2023-05-13T08:49:56;12.20;99.90
7212;DHT22;3647;48.792;9.802;2023-05-13T08:54:51;12.40;99.90
7212;DHT22;3647;48.792;9.802;2023-05-13T08:59:46;12.50;99.90
7212;DHT22;3647;48.792;9.802;2023-05-13T09:04:40;12.60;99.90
7212;DHT22;3647;48.792;9.802;2023-05-13T09:07:10;12.70;99.90
7212;DHT22;3647;48.792;9.802;2023-05-13T09:12:05;12.70;99.90
7212;DHT22;3647;48.792;9.802;2023-05-13T09:14:33;12.60;99.90
7212;DHT22;3647;48.792;9.802;2023-05-13T09:19:27;12.60;99.90
7212;DHT22;3647;48.792;9.802;2023-05-13T09:24:23;12.80;99.90
7212;DHT22;3647;48.792;9.802;2023-05-13T09:26:50;13.70;99.90
7212;DHT22;3647;48.792;9.802;2023-05-13T09:29:19;12.80;99.90
7212;DHT22;3647;48.792;9.802;2023-05-13T09:31:49;13.00;99.90
7212;DHT22;3647;48.792;9.802;2023-05-13T09:34:25;13.10;99.90
7212;DHT22;3647;48.792;9.802;2023-05-13T09:37:09;13.00;99.90
7212;DHT22;3647;48.792;9.802;2023-05-13T09:39:44;13.00;99.90
7212;DHT22;3647;48.792;9.802;2023-05-13T09:42:14;13.10;99.90
7212;DHT22;3647;48.792;9.802;2023-05-13T09:44:41;13.00;99.90
7212;DHT22;3647;48.792;9.802;2023-05-13T09:47:10;13.10;99.90
7212;DHT22;3647;48.792;9.802;2023-05-13T09:49:37;13.20;99.90
7212;DHT22;3647;48.792;9.802;2023-05-13T09:52:04;13.00;99.90
7212;DHT22;3647;48.792;9.802;2023-05-13T09:57:04;13.10;99.90
7212;DHT22;3647;48.792;9.802;2023-05-13T09:59:31;13.10;99.90
7212;DHT22;3647;48.792;9.802;2023-05-13T10:01:59;12.90;99.90
7212;DHT22;3647;48.792;9.802;2023-05-13T10:04:29;13.00;99.90
7212;DHT22;3647;48.792;9.802;2023-05-13T10:06:57;12.90;99.90
7212;DHT22;3647;48.792;9.802;2023-05-13T10:09:25;12.70;99.90
7212;DHT22;3647;48.792;9.802;2023-05-13T10:11:55;12.70;99.90
7212;DHT22;3647;48.792;9.802;2023-05-13T10:14:23;12.70;99.90
7212;DHT22;3647;48.792;9.802;2023-05-13T10:16:51;12.80;99.90
7212;DHT22;3647;48.792;9.802;2023-05-13T10:19:18;12.70;99.90
7212;DHT22;3647;48.792;9.802;2023-05-13T10:21:46;12.70;99.90
7212;DHT22;3647;48.792;9.802;2023-05-13T10:24:16;12.60;99.90
7212;DHT22;3647;48.792;9.802;2023-05-13T10:26:44;12.70;99.90
7212;DHT22;3647;48.792;9.802;2023-05-13T10:29:11;12.80;99.90
7212;DHT22;3647;48.792;9.802;2023-05-13T10:31:40;12.90;99.90
7212;DHT22;3647;48.792;9.802;2023-05-13T10:34:08;12.80;99.90
7212;DHT22;3647;48.792;9.802;2023-05-13T10:36:51;13.00;99.90
7212;DHT22;3647;48.792;9.802;2023-05-13T10:42:39;13.10;99.90
7212;DHT22;3647;48.792;9.802;2023-05-13T10:47:36;13.10;99.90
7212;DHT22;3647;48.792;9.802;2023-05-13T10:50:05;13.20;99.90
7212;DHT22;3647;48.792;9.802;2023-05-13T10:52:42;13.20;99.90
7212;DHT22;3647;48.792;9.802;2023-05-13T10:55:15;13.30;99.90
7212;DHT22;3647;48.792;9.802;2023-05-13T10:58:03;13.30;99.90
7212;DHT22;3647;48.792;9.802;2023-05-13T11:00:30;13.20;99.90
7212;DHT22;3647;48.792;9.802;2023-05-13T11:03:13;13.10;99.90
7212;DHT22;3647;48.792;9.802;2023-05-13T11:05:43;13.00;99.90
7212;DHT22;3647;48.792;9.802;2023-05-13T11:08:10;13.10;99.90
7212;DHT22;3647;48.792;9.802;2023-05-13T11:10:37;13.20;99.90
7212;DHT22;3647;48.792;9.802;2023-05-13T11:13:34;13.20;99.90
7212;DHT22;3647;48.792;9.802;2023-05-13T11:16:05;13.40;99.90
7212;DHT22;3647;48.792;9.802;2023-05-13T11:18:33;13.40;99.90
7212;DHT22;3647;48.792;9.802;2023-05-13T11:21:01;13.80;99.90
7212;DHT22;3647;48.792;9.802;2023-05-13T11:23:29;13.80;99.90
7212;DHT22;3647;48.792;9.802;2023-05-13T11:26:10;13.80;99.90
7212;DHT22;3647;48.792;9.802;2023-05-13T11:28:55;13.50;99.90
7212;DHT22;3647;48.792;9.802;2023-05-13T11:34:08;13.30;99.90
7212;DHT22;3647;48.792;9.802;2023-05-13T11:36:36;13.40;99.90
7212;DHT22;3647;48.792;9.802;2023-05-13T11:39:08;13.40;99.90
7212;DHT22;3647;48.792;9.802;2023-05-13T11:41:38;14.10;99.90
7212;DHT22;3647;48.792;9.802;2023-05-13T11:44:05;13.40;99.90
7212;DHT22;3647;48.792;9.802;2023-05-13T11:51:29;13.30;99.90
7212;DHT22;3647;48.792;9.802;2023-05-13T11:54:01;13.40;99.90
7212;DHT22;3647;48.792;9.802;2023-05-13T11:56:29;13.40;99.90
7212;DHT22;3647;48.792;9.802;2023-05-13T11:59:11;13.40;99.90
7212;DHT22;3647;48.792;9.802;2023-05-13T12:06:34;13.50;99.90
7212;DHT22;3647;48.792;9.802;2023-05-13T12:09:10;13.60;99.90
7212;DHT22;3647;48.792;9.802;2023-05-13T12:11:37;13.70;99.90
7212;DHT22;3647;48.792;9.802;2023-05-13T12:18:59;13.50;99.90
7212;DHT22;3647;48.792;9.802;2023-05-13T12:21:30;16.50;99.90
7212;DHT22;3647;48.792;9.802;2023-05-13T12:23:59;13.30;99.90
7212;DHT22;3647;48.792;9.802;2023-05-13T12:26:26;13.30;99.90
7212;DHT22;3647;48.792;9.802;2023-05-13T12:28:57;13.50;99.90
7212;DHT22;3647;48.792;9.802;2023-05-13T12:31:24;13.60;99.90
7212;DHT22;3647;48.792;9.802;2023-05-13T12:33:51;13.60;99.90
7212;DHT22;3647;48.792;9.802;2023-05-13T12:36:20;13.80;99.90
7212;DHT22;3647;48.792;9.802;2023-05-13T12:38:57;13.60;99.90
7212;DHT22;3647;48.792;9.802;2023-05-13T12:41:29;13.60;99.90
7212;DHT22;3647;48.792;9.802;2023-05-13T12:44:00;13.50;99.90
7212;DHT22;3647;48.792;9.802;2023-05-13T12:48:55;13.50;99.90
7212;DHT22;3647;48.792;9.802;2023-05-13T12:51:23;14.30;99.90
7212;DHT22;3647;48.792;9.802;2023-05-13T12:53:50;13.60;99.90
7212;DHT22;3647;48.792;9.802;2023-05-13T12:56:19;13.70;99.90
7212;DHT22;3647;48.792;9.802;2023-05-13T12:58:48;13.70;99.90
7212;DHT22;3647;48.792;9.802;2023-05-13T13:01:15;13.80;99.90
7212;DHT22;3647;48.792;9.802;2023-05-13T13:03:42;13.80;99.90
7212;DHT22;3647;48.792;9.802;2023-05-13T13:06:10;13.70;99.90
7212;DHT22;3647;48.792;9.802;2023-05-13T13:13:32;13.60;99.90
7212;DHT22;3647;48.792;9.802;2023-05-13T13:16:00;13.60;99.90
7212;DHT22;3647;48.792;9.802;2023-05-13T13:18:27;13.60;99.90
7212;DHT22;3647;48.792;9.802;2023-05-13T13:23:21;13.60;99.90
7212;DHT22;3647;48.792;9.802;2023-05-13T13:25:48;13.60;99.90
7212;DHT22;3647;48.792;9.802;2023-05-13T13:28:15;13.50;99.90
7212;DHT22;3647;48.792;9.802;2023-05-13T13:33:13;13.50;99.90
7212;DHT22;3647;48.792;9.802;2023-05-13T13:35:42;13.50;99.90
7212;DHT22;3647;48.792;9.802;2023-05-13T13:40:36;13.70;99.90
7212;DHT22;3647;48.792;9.802;2023-05-13T13:43:03;13.70;99.90
7212;DHT22;3647;48.792;9.802;2023-05-13T13:45:30;16.70;99.90
7212;DHT22;3647;48.792;9.802;2023-05-13T13:47:57;13.80;99.90
7212;DHT22;3647;48.792;9.802;2023-05-13T13:50:25;13.90;99.90
7212;DHT22;3647;48.792;9.802;2023-05-13T13:52:52;14.10;99.90
7212;DHT22;3647;48.792;9.802;2023-05-13T13:55:19;14.20;99.90
7212;DHT22;3647;48.792;9.802;2023-05-13T13:57:46;14.30;99.90
7212;DHT22;3647;48.792;9.802;2023-05-13T14:00:14;14.10;99.90
7212;DHT22;3647;48.792;9.802;2023-05-13T14:02:41;14.20;99.90
7212;DHT22;3647;48.792;9.802;2023-05-13T14:05:09;14.30;99.90
7212;DHT22;3647;48.792;9.802;2023-05-13T14:07:37;14.40;99.90
7212;DHT22;3647;48.792;9.802;2023-05-13T14:10:06;14.40;99.90
7212;DHT22;3647;48.792;9.802;2023-05-13T14:12:33;14.40;99.90
7212;DHT22;3647;48.792;9.802;2023-05-13T14:15:01;14.50;99.90
7212;DHT22;3647;48.792;9.802;2023-05-13T14:17:28;14.60;99.90
7212;DHT22;3647;48.792;9.802;2023-05-13T14:19:54;14.60;99.90
7212;DHT22;3647;48.792;9.802;2023-05-13T14:22:21;14.90;99.90
7212;DHT22;3647;48.792;9.802;2023-05-13T14:24:51;15.00;99.90
7212;DHT22;3647;48.792;9.802;2023-05-13T14:27:18;15.10;99.90
7212;DHT22;3647;48.792;9.802;2023-05-13T14:29:47;15.30;99.90
7212;DHT22;3647;48.792;9.802;2023-05-13T14:32:13;15.60;99.90
7212;DHT22;3647;48.792;9.802;2023-05-13T14:34:40;15.60;99.90
7212;DHT22;3647;48.792;9.802;2023-05-13T14:37:07;15.30;99.90
7212;DHT22;3647;48.792;9.802;2023-05-13T14:39:34;14.60;99.90
7212;DHT22;3647;48.792;9.802;2023-05-13T14:42:03;14.60;99.90
7212;DHT22;3647;48.792;9.802;2023-05-13T14:44:30;14.60;99.90
7212;DHT22;3647;48.792;9.802;2023-05-13T14:46:57;14.60;99.90
7212;DHT22;3647;48.792;9.802;2023-05-13T14:49:24;14.40;99.90
7212;DHT22;3647;48.792;9.802;2023-05-13T14:51:51;14.40;99.90
7212;DHT22;3647;48.792;9.802;2023-05-13T14:54:18;14.30;99.90
7212;DHT22;3647;48.792;9.802;2023-05-13T14:59:13;14.00;99.90
7212;DHT22;3647;48.792;9.802;2023-05-13T15:04:07;14.20;99.90
7212;DHT22;3647;48.792;9.802;2023-05-13T15:06:35;14.40;99.90
7212;DHT22;3647;48.792;9.802;2023-05-13T15:09:02;14.40;99.90
7212;DHT22;3647;48.792;9.802;2023-05-13T15:11:30;14.40;99.90
7212;DHT22;3647;48.792;9.802;2023-05-13T15:16:26;14.40;99.90
7212;DHT22;3647;48.792;9.802;2023-05-13T15:18:52;14.50;99.90
7212;DHT22;3647;48.792;9.802;2023-05-13T15:21:19;14.50;99.90
7212;DHT22;3647;48.792;9.802;2023-05-13T15:23:46;14.70;99.90
7212;DHT22;3647;48.792;9.802;2023-05-13T15:26:13;14.80;99.90
7212;DHT22;3647;48.792;9.802;2023-05-13T15:28:39;15.40;99.90
7212;DHT22;3647;48.792;9.802;2023-05-13T15:31:06;14.90;99.90
7212;DHT22;3647;48.792;9.802;2023-05-13T15:33:34;15.10;99.90
7212;DHT22;3647;48.792;9.802;2023-05-13T15:36:01;15.40;99.90
7212;DHT22;3647;48.792;9.802;2023-05-13T15:38:30;15.40;99.90
7212;DHT22;3647;48.792;9.802;2023-05-13T15:40:56;15.50;99.90
7212;DHT22;3647;48.792;9.802;2023-05-13T15:43:23;15.40;99.90
7212;DHT22;3647;48.792;9.802;2023-05-13T15:45:50;15.30;99.90
7212;DHT22;3647;48.792;9.802;2023-05-13T15:48:17;15.20;99.90
7212;DHT22;3647;48.792;9.802;2023-05-13T15:50:46;15.20;99.90
7212;DHT22;3647;48.792;9.802;2023-05-13T15:55:40;15.10;99.90
7212;DHT22;3647;48.792;9.802;2023-05-13T15:58:06;15.10;99.90
7212;DHT22;3647;48.792;9.802;2023-05-13T16:00:33;15.30;99.90
7212;DHT22;3647;48.792;9.802;2023-05-13T16:03:00;15.30;99.90
7212;DHT22;3647;48.792;9.802;2023-05-13T16:05:27;15.40;99.90
7212;DHT22;3647;48.792;9.802;2023-05-13T16:07:55;15.40;99.90
7212;DHT22;3647;48.792;9.802;2023-05-13T16:10:22;15.30;99.90
7212;DHT22;3647;48.792;9.802;2023-05-13T16:12:49;15.30;99.90
7212;DHT22;3647;48.792;9.802;2023-05-13T16:15:16;15.20;99.90
7212;DHT22;3647;48.792;9.802;2023-05-13T16:17:43;15.00;99.90
7212;DHT22;3647;48.792;9.802;2023-05-13T16:20:10;15.00;99.90
7212;DHT22;3647;48.792;9.802;2023-05-13T16:22:38;15.20;99.90
7212;DHT22;3647;48.792;9.802;2023-05-13T16:25:07;15.10;99.90
7212;DHT22;3647;48.792;9.802;2023-05-13T16:27:35;14.70;99.90
7212;DHT22;3647;48.792;9.802;2023-05-13T16:30:04;14.90;99.90
7212;DHT22;3647;48.792;9.802;2023-05-13T16:32:32;17.80;99.90
7212;DHT22;3647;48.792;9.802;2023-05-13T16:34:59;15.20;99.90
7212;DHT22;3647;48.792;9.802;2023-05-13T16:37:26;15.10;99.90
7212;DHT22;3647;48.792;9.802;2023-05-13T16:39:52;16.10;99.90
7212;DHT22;3647;48.792;9.802;2023-05-13T16:42:21;15.20;99.90
7212;DHT22;3647;48.792;9.802;2023-05-13T16:44:47;15.00;99.90
7212;DHT22;3647;48.792;9.802;2023-05-13T16:47:14;15.00;99.90
7212;DHT22;3647;48.792;9.802;2023-05-13T16:49:41;14.80;99.90
7212;DHT22;3647;48.792;9.802;2023-05-13T16:52:08;14.80;99.90
7212;DHT22;3647;48.792;9.802;2023-05-13T16:54:35;14.70;99.90
7212;DHT22;3647;48.792;9.802;2023-05-13T16:57:01;14.70;99.90
7212;DHT22;3647;48.792;9.802;2023-05-13T16:59:30;14.80;99.90
7212;DHT22;3647;48.792;9.802;2023-05-13T17:01:58;14.70;99.90
7212;DHT22;3647;48.792;9.802;2023-05-13T17:04:25;14.80;99.90
7212;DHT22;3647;48.792;9.802;2023-05-13T17:06:52;14.70;99.90
7212;DHT22;3647;48.792;9.802;2023-05-13T17:09:19;14.70;99.90
7212;DHT22;3647;48.792;9.802;2023-05-13T17:11:46;14.70;99.90
7212;DHT22;3647;48.792;9.802;2023-05-13T17:14:13;14.50;99.90
7212;DHT22;3647;48.792;9.802;2023-05-13T17:16:42;14.90;99.90
7212;DHT22;3647;48.792;9.802;2023-05-13T17:19:09;14.60;99.90
7212;DHT22;3647;48.792;9.802;2023-05-13T17:21:36;14.60;99.90
7212;DHT22;3647;48.792;9.802;2023-05-13T17:24:03;14.70;99.90
7212;DHT22;3647;48.792;9.802;2023-05-13T17:26:30;14.80;99.90
7212;DHT22;3647;48.792;9.802;2023-05-13T17:28:57;14.90;99.90
7212;DHT22;3647;48.792;9.802;2023-05-13T17:31:24;14.90;99.90
7212;DHT22;3647;48.792;9.802;2023-05-13T17:33:52;15.00;99.90
7212;DHT22;3647;48.792;9.802;2023-05-13T17:36:19;15.10;99.90
7212;DHT22;3647;48.792;9.802;2023-05-13T17:38:46;15.20;99.90
7212;DHT22;3647;48.792;9.802;2023-05-13T17:41:13;15.20;99.90
7212;DHT22;3647;48.792;9.802;2023-05-13T17:43:40;15.20;99.90
7212;DHT22;3647;48.792;9.802;2023-05-13T17:46:07;15.30;99.90
7212;DHT22;3647;48.792;9.802;2023-05-13T17:48:34;15.20;99.90
7212;DHT22;3647;48.792;9.802;2023-05-13T17:51:02;16.80;99.90
7212;DHT22;3647;48.792;9.802;2023-05-13T17:53:29;15.20;99.90
7212;DHT22;3647;48.792;9.802;2023-05-13T17:55:56;15.20;99.90
7212;DHT22;3647;48.792;9.802;2023-05-13T17:58:22;15.30;99.90
7212;DHT22;3647;48.792;9.802;2023-05-13T18:00:49;16.50;99.90
7212;DHT22;3647;48.792;9.802;2023-05-13T18:03:16;15.30;99.90
7212;DHT22;3647;48.792;9.802;2023-05-13T18:05:43;15.40;99.90
7212;DHT22;3647;48.792;9.802;2023-05-13T18:08:11;15.40;99.90
7212;DHT22;3647;48.792;9.802;2023-05-13T18:10:38;15.30;99.90
7212;DHT22;3647;48.792;9.802;2023-05-13T18:13:05;15.30;99.90
7212;DHT22;3647;48.792;9.802;2023-05-13T18:15:32;16.70;99.90
7212;DHT22;3647;48.792;9.802;2023-05-13T18:17:59;15.30;99.90
7212;DHT22;3647;48.792;9.802;2023-05-13T18:20:28;15.20;99.90
7212;DHT22;3647;48.792;9.802;2023-05-13T18:22:54;15.10;99.90
7212;DHT22;3647;48.792;9.802;2023-05-13T18:25:23;15.00;99.90
7212;DHT22;3647;48.792;9.802;2023-05-13T18:27:49;15.50;99.90
7212;DHT22;3647;48.792;9.802;2023-05-13T18:30:17;17.40;99.90
7212;DHT22;3647;48.792;9.802;2023-05-13T18:32:43;14.70;99.90
7212;DHT22;3647;48.792;9.802;2023-05-13T18:35:10;15.90;99.90
7212;DHT22;3647;48.792;9.802;2023-05-13T18:37:37;14.50;99.90
7212;DHT22;3647;48.792;9.802;2023-05-13T18:40:05;14.50;99.90
7212;DHT22;3647;48.792;9.802;2023-05-13T18:42:33;14.40;99.90
7212;DHT22;3647;48.792;9.802;2023-05-13T18:45:00;14.40;99.90
7212;DHT22;3647;48.792;9.802;2023-05-13T18:47:27;14.40;99.90
7212;DHT22;3647;48.792;9.802;2023-05-13T18:49:54;14.30;99.90
7212;DHT22;3647;48.792;9.802;2023-05-13T18:52:20;14.30;99.90
7212;DHT22;3647;48.792;9.802;2023-05-13T18:54:47;14.30;99.90
7212;DHT22;3647;48.792;9.802;2023-05-13T18:57:14;14.30;99.90
7212;DHT22;3647;48.792;9.802;2023-05-13T18:59:43;15.60;99.90
7212;DHT22;3647;48.792;9.802;2023-05-13T19:02:09;14.00;99.90
7212;DHT22;3647;48.792;9.802;2023-05-13T19:04:36;13.90;99.90
7212;DHT22;3647;48.792;9.802;2023-05-13T19:07:03;13.80;99.90
7212;DHT22;3647;48.792;9.802;2023-05-13T19:09:30;13.70;99.90
7212;DHT22;3647;48.792;9.802;2023-05-13T19:11:58;13.60;99.90
7212;DHT22;3647;48.792;9.802;2023-05-13T19:14:25;13.60;99.90
7212;DHT22;3647;48.792;9.802;2023-05-13T19:16:53;13.50;99.90
7212;DHT22;3647;48.792;9.802;2023-05-13T19:19:22;13.50;99.90
7212;DHT22;3647;48.792;9.802;2023-05-13T19:21:49;13.40;99.90
7212;DHT22;3647;48.792;9.802;2023-05-13T19:24:16;13.40;99.90
7212;DHT22;3647;48.792;9.802;2023-05-13T19:26:43;13.30;99.90
7212;DHT22;3647;48.792;9.802;2023-05-13T19:29:10;13.30;99.90
7212;DHT22;3647;48.792;9.802;2023-05-13T19:31:37;13.20;99.90
7212;DHT22;3647;48.792;9.802;2023-05-13T19:34:05;14.70;99.90
7212;DHT22;3647;48.792;9.802;2023-05-13T19:36:32;13.10;99.90
7212;DHT22;3647;48.792;9.802;2023-05-13T19:38:59;13.10;99.90
7212;DHT22;3647;48.792;9.802;2023-05-13T19:41:25;13.10;99.90
7212;DHT22;3647;48.792;9.802;2023-05-13T19:43:52;13.10;99.90
7212;DHT22;3647;48.792;9.802;2023-05-13T19:46:19;13.10;99.90
7212;DHT22;3647;48.792;9.802;2023-05-13T19:48:45;13.00;99.90
7212;DHT22;3647;48.792;9.802;2023-05-13T19:51:14;13.00;99.90
7212;DHT22;3647;48.792;9.802;2023-05-13T19:53:40;14.90;99.90
7212;DHT22;3647;48.792;9.802;2023-05-13T19:56:07;12.90;99.90
7212;DHT22;3647;48.792;9.802;2023-05-13T19:58:34;12.90;99.90
7212;DHT22;3647;48.792;9.802;2023-05-13T20:01:01;12.90;99.90
7212;DHT22;3647;48.792;9.802;2023-05-13T20:03:28;12.90;99.90
7212;DHT22;3647;48.792;9.802;2023-05-13T20:05:54;12.90;99.90
7212;DHT22;3647;48.792;9.802;2023-05-13T20:08:22;12.90;99.90
7212;DHT22;3647;48.792;9.802;2023-05-13T20:10:49;12.80;99.90
7212;DHT22;3647;48.792;9.802;2023-05-13T20:13:16;12.70;99.90
7212;DHT22;3647;48.792;9.802;2023-05-13T20:15:43;12.70;99.90
7212;DHT22;3647;48.792;9.802;2023-05-13T20:18:10;12.70;99.90
7212;DHT22;3647;48.792;9.802;2023-05-13T20:20:36;12.70;99.90
7212;DHT22;3647;48.792;9.802;2023-05-13T20:23:05;12.70;99.90
7212;DHT22;3647;48.792;9.802;2023-05-13T20:25:33;15.00;99.90
7212;DHT22;3647;48.792;9.802;2023-05-13T20:28:00;12.60;99.90
7212;DHT22;3647;48.792;9.802;2023-05-13T20:30:27;12.60;99.90
7212;DHT22;3647;48.792;9.802;2023-05-13T20:32:54;12.50;99.90
7212;DHT22;3647;48.792;9.802;2023-05-13T20:35:21;13.30;99.90
7212;DHT22;3647;48.792;9.802;2023-05-13T20:37:47;12.50;99.90
7212;DHT22;3647;48.792;9.802;2023-05-13T20:40:14;15.30;99.90
7212;DHT22;3647;48.792;9.802;2023-05-13T20:42:42;12.50;99.90
7212;DHT22;3647;48.792;9.802;2023-05-13T20:45:10;12.50;99.90
7212;DHT22;3647;48.792;9.802;2023-05-13T20:47:37;12.50;99.90
7212;DHT22;3647;48.792;9.802;2023-05-13T20:50:05;12.50;99.90
7212;DHT22;3647;48.792;9.802;2023-05-13T20:52:32;12.50;99.90
7212;DHT22;3647;48.792;9.802;2023-05-13T20:54:59;12.40;99.90
7212;DHT22;3647;48.792;9.802;2023-05-13T20:57:25;12.40;99.90
7212;DHT22;3647;48.792;9.802;2023-05-13T20:59:54;12.40;99.90
7212;DHT22;3647;48.792;9.802;2023-05-13T21:02:20;12.40;99.90
7212;DHT22;3647;48.792;9.802;2023-05-13T21:04:47;12.50;99.90
7212;DHT22;3647;48.792;9.802;2023-05-13T21:07:14;12.40;99.90
7212;DHT22;3647;48.792;9.802;2023-05-13T21:09:41;12.40;99.90
7212;DHT22;3647;48.792;9.802;2023-05-13T21:12:07;12.30;99.90
7212;DHT22;3647;48.792;9.802;2023-05-13T21:14:34;12.30;99.90
7212;DHT22;3647;48.792;9.802;2023-05-13T21:17:02;12.30;99.90
7212;DHT22;3647;48.792;9.802;2023-05-13T21:19:29;12.30;99.90
7212;DHT22;3647;48.792;9.802;2023-05-13T21:21:56;12.20;99.90
7212;DHT22;3647;48.792;9.802;2023-05-13T21:24:24;12.20;99.90
7212;DHT22;3647;48.792;9.802;2023-05-13T21:26:51;12.20;99.90
7212;DHT22;3647;48.792;9.802;2023-05-13T21:29:18;12.20;99.90
7212;DHT22;3647;48.792;9.802;2023-05-13T21:31:45;12.20;99.90
7212;DHT22;3647;48.792;9.802;2023-05-13T21:34:14;12.20;99.90
7212;DHT22;3647;48.792;9.802;2023-05-13T21:36:40;12.20;99.90
7212;DHT22;3647;48.792;9.802;2023-05-13T21:39:07;12.20;99.90
7212;DHT22;3647;48.792;9.802;2023-05-13T21:41:35;12.20;99.90
7212;DHT22;3647;48.792;9.802;2023-05-13T21:44:02;12.10;99.90
7212;DHT22;3647;48.792;9.802;2023-05-13T21:46:29;12.20;99.90
7212;DHT22;3647;48.792;9.802;2023-05-13T21:48:57;12.20;99.90
7212;DHT22;3647;48.792;9.802;2023-05-13T21:51:26;12.30;99.90
7212;DHT22;3647;48.792;9.802;2023-05-13T21:53:53;12.10;99.90
7212;DHT22;3647;48.792;9.802;2023-05-13T21:56:20;12.10;99.90
7212;DHT22;3647;48.792;9.802;2023-05-13T21:58:47;12.10;99.90
7212;DHT22;3647;48.792;9.802;2023-05-13T22:01:15;12.10;99.90
7212;DHT22;3647;48.792;9.802;2023-05-13T22:03:41;12.90;99.90
7212;DHT22;3647;48.792;9.802;2023-05-13T22:06:08;12.10;99.90
7212;DHT22;3647;48.792;9.802;2023-05-13T22:08:36;12.10;99.90
7212;DHT22;3647;48.792;9.802;2023-05-13T22:11:03;13.10;99.90
7212;DHT22;3647;48.792;9.802;2023-05-13T22:13:31;12.10;99.90
7212;DHT22;3647;48.792;9.802;2023-05-13T22:15:58;12.00;99.90
7212;DHT22;3647;48.792;9.802;2023-05-13T22:18:24;12.00;99.90
7212;DHT22;3647;48.792;9.802;2023-05-13T22:20:51;12.00;99.90
7212;DHT22;3647;48.792;9.802;2023-05-13T22:23:18;11.90;99.90
7212;DHT22;3647;48.792;9.802;2023-05-13T22:25:47;11.90;99.90
7212;DHT22;3647;48.792;9.802;2023-05-13T22:28:13;11.90;99.90
